LFLL/LYS METAR and TAF weather

Enter ICAO airport designator
Station Type Date Time Source
LFLL METAR 2019/09/20 09:30 UTC NOAA

LFLL 200930Z 05004KT 360V130 CAVOK 17/07 Q1023 NOSIG


Station Type Date Time Source
LFLL Decoded METAR 2019/09/20 09:30 UTC NOAA

Lyon / Satolas, France (LFLL) 45-44N 005-05E 240M
Sep 20, 2019 - 05:30 AM EDT / 2019.09.20 0930 UTC
Wind: from the NE (050 degrees) at 5 MPH (4 KT) (direction variable):0
Visibility: greater than 7 mile(s):0
Temperature: 62 F (17 C)
Dew Point: 44 F (7 C)
Relative Humidity: 51%
Pressure (altimeter): 30.21 in. Hg (1023 hPa)
ob: LFLL 200930Z 05004KT 360V130 CAVOK 17/07 Q1023 NOSIG
cycle: 9

Station Type Date Time Source
LFLL TAF 2019/09/20 06:21 UTC NOAA

TAF LFLL 200500Z 2006/2112 VRB03KT CAVOK
BECMG 2018/2020 12008KT
BECMG 2109/2111 18015G25KT

Example: see airport list